Time;durP1;ratioP1;P1;durP2;ratioP2;P2;SDS_P1;SDS_P2;PMS_P1;PMS_P2;Temp;Humidity;BMP_temperature;BMP_pressure;BME280_temperature;BME280_humidity;BME280_pressure;Samples;Min_cycle;Max_cycle;Signal;HPM_P1;HPM_P2
2023/06/01 00:01:54;;;;;;;6.05;4.05;;;;;;;;;;4997593;28;20364;-31
2023/06/01 00:04:20;;;;;;;5.43;4.25;;;;;;;;;;4997396;28;20093;-31
2023/06/01 00:06:46;;;;;;;7.88;4.00;;;;;;;;;;4997576;28;20026;-31
2023/06/01 00:09:12;;;;;;;5.65;3.70;;;;;;;;;;4998088;28;20022;-31
2023/06/01 00:11:38;;;;;;;4.40;3.30;;;;;;;;;;4997738;28;20034;-36
2023/06/01 00:14:04;;;;;;;5.30;3.90;;;;;;;;;;4980352;28;20038;-32
2023/06/01 00:16:30;;;;;;;4.78;4.10;;;;;;;;;;4997418;28;20454;-31
2023/06/01 00:19:00;;;;;;;4.75;4.00;;;;;;;;;;4997640;28;20270;-31
2023/06/01 00:21:26;;;;;;;5.50;4.20;;;;;;;;;;4997551;28;20034;-31
2023/06/01 00:23:52;;;;;;;3.80;3.50;;;;;;;;;;4997223;28;20417;-31
2023/06/01 00:26:19;;;;;;;5.53;4.03;;;;;;;;;;4997152;28;20035;-32
2023/06/01 00:28:45;;;;;;;4.43;3.70;;;;;;;;;;4997655;28;20085;-31
2023/06/01 00:31:11;;;;;;;6.80;3.63;;;;;;;;;;4997401;28;20034;-32
2023/06/01 00:33:37;;;;;;;7.57;5.15;;;;;;;;;;4997014;28;20026;-31
2023/06/01 00:36:03;;;;;;;5.93;3.47;;;;;;;;;;4997291;28;20465;-31
2023/06/01 00:38:29;;;;;;;4.75;3.92;;;;;;;;;;4997241;28;20026;-31
2023/06/01 00:40:56;;;;;;;4.38;3.60;;;;;;;;;;4996200;28;20030;-31
2023/06/01 00:43:22;;;;;;;4.75;3.63;;;;;;;;;;4996803;28;20162;-31
2023/06/01 00:45:48;;;;;;;6.47;3.55;;;;;;;;;;4996756;28;20036;-32
2023/06/01 00:48:15;;;;;;;4.88;3.30;;;;;;;;;;4996793;28;20434;-31
2023/06/01 00:50:41;;;;;;;5.20;3.67;;;;;;;;;;4996773;28;20030;-31
2023/06/01 00:53:08;;;;;;;4.13;3.63;;;;;;;;;;4996828;28;20409;-31
2023/06/01 00:55:35;;;;;;;4.80;3.83;;;;;;;;;;4997463;28;20030;-31
2023/06/01 00:58:02;;;;;;;5.15;3.45;;;;;;;;;;4996851;28;20030;-31
2023/06/01 01:00:29;;;;;;;5.47;3.70;;;;;;;;;;4996846;28;20058;-31
2023/06/01 01:03:00;;;;;;;7.57;3.80;;;;;;;;;;4996241;28;20030;-31
2023/06/01 01:05:27;;;;;;;6.30;3.45;;;;;;;;;;4996463;28;20038;-31
2023/06/01 01:07:58;;;;;;;4.20;2.95;;;;;;;;;;4996677;28;20031;-31
2023/06/01 01:10:27;;;;;;;5.45;4.10;;;;;;;;;;4996779;28;20022;-30
2023/06/01 01:12:56;;;;;;;4.97;3.30;;;;;;;;;;4996216;28;20556;-32
2023/06/01 01:15:25;;;;;;;4.47;3.17;;;;;;;;;;4996845;28;20105;-31
2023/06/01 01:17:53;;;;;;;5.85;3.97;;;;;;;;;;4996532;28;20019;-31
2023/06/01 01:20:22;;;;;;;4.53;3.60;;;;;;;;;;4996224;28;20531;-31
2023/06/01 01:22:53;;;;;;;4.43;3.40;;;;;;;;;;4996076;28;20109;-31
2023/06/01 01:25:38;;;;;;;4.68;3.33;;;;;;;;;;4996410;28;20131;-31
2023/06/01 01:28:07;;;;;;;8.85;4.13;;;;;;;;;;4996036;28;20019;-31
2023/06/01 01:30:36;;;;;;;4.32;3.63;;;;;;;;;;4995928;28;20046;-32
2023/06/01 01:33:03;;;;;;;6.63;3.60;;;;;;;;;;4995834;28;20026;-32
2023/06/01 01:35:29;;;;;;;4.43;3.88;;;;;;;;;;4995919;28;20022;-31
2023/06/01 01:37:55;;;;;;;4.47;3.17;;;;;;;;;;4996133;28;20037;-32
2023/06/01 01:40:22;;;;;;;7.88;4.00;;;;;;;;;;4995858;28;20038;-31
2023/06/01 01:42:49;;;;;;;5.40;3.80;;;;;;;;;;4978560;28;20033;-31
2023/06/01 01:45:16;;;;;;;3.83;3.40;;;;;;;;;;4996332;28;20030;-32
2023/06/01 01:47:49;;;;;;;5.00;3.60;;;;;;;;;;4995762;28;20030;-31
2023/06/01 01:50:16;;;;;;;4.35;3.90;;;;;;;;;;4996007;28;20355;-31
2023/06/01 01:52:43;;;;;;;6.20;3.85;;;;;;;;;;4995797;28;20026;-31
2023/06/01 01:55:10;;;;;;;5.97;4.05;;;;;;;;;;4995586;28;20030;-30
2023/06/01 01:57:36;;;;;;;5.13;3.20;;;;;;;;;;4996094;28;20165;-31
2023/06/01 02:00:03;;;;;;;4.78;3.80;;;;;;;;;;4995554;28;20434;-31
2023/06/01 02:02:30;;;;;;;4.25;3.70;;;;;;;;;;4995673;28;20101;-31
2023/06/01 02:04:56;;;;;;;5.03;4.20;;;;;;;;;;4995319;28;20043;-31
2023/06/01 02:07:22;;;;;;;6.20;3.63;;;;;;;;;;4995722;28;20027;-31
2023/06/01 02:09:49;;;;;;;4.70;3.83;;;;;;;;;;4995322;28;20033;-31
2023/06/01 02:12:15;;;;;;;8.02;4.30;;;;;;;;;;4995223;28;20031;-31
2023/06/01 02:14:41;;;;;;;4.28;3.78;;;;;;;;;;4978171;28;20027;-30
2023/06/01 02:17:07;;;;;;;3.67;3.30;;;;;;;;;;4978215;28;20026;-31
2023/06/01 02:19:34;;;;;;;4.43;4.03;;;;;;;;;;4995330;28;20106;-31
2023/06/01 02:22:00;;;;;;;5.65;4.32;;;;;;;;;;4995405;28;20025;-31
2023/06/01 02:24:26;;;;;;;4.60;4.10;;;;;;;;;;4995257;28;20030;-30
2023/06/01 02:26:53;;;;;;;6.55;5.20;;;;;;;;;;4995214;28;20026;-31
2023/06/01 02:29:21;;;;;;;4.35;3.55;;;;;;;;;;4995455;28;20080;-31
2023/06/01 02:31:48;;;;;;;5.90;3.80;;;;;;;;;;4995398;28;20045;-31
2023/06/01 02:34:14;;;;;;;5.22;3.47;;;;;;;;;;4995026;28;20026;-31
2023/06/01 02:36:40;;;;;;;3.30;3.00;;;;;;;;;;4995134;28;20090;-31
2023/06/01 02:39:06;;;;;;;4.00;3.40;;;;;;;;;;4995419;28;20049;-30
2023/06/01 02:41:33;;;;;;;4.93;3.83;;;;;;;;;;4995397;28;20057;-31
2023/06/01 02:43:59;;;;;;;5.15;3.25;;;;;;;;;;4994953;28;20023;-31
2023/06/01 02:46:25;;;;;;;4.22;3.78;;;;;;;;;;4995349;28;20045;-31
2023/06/01 02:48:52;;;;;;;5.05;3.47;;;;;;;;;;4995032;28;20121;-32
2023/06/01 02:51:18;;;;;;;4.45;3.78;;;;;;;;;;4995028;28;20027;-32
2023/06/01 02:53:46;;;;;;;4.00;3.33;;;;;;;;;;4994882;28;20027;-32
2023/06/01 02:56:13;;;;;;;3.88;3.47;;;;;;;;;;4995491;28;20505;-31
2023/06/01 02:58:39;;;;;;;5.47;3.85;;;;;;;;;;4977872;28;20438;-31
2023/06/01 03:01:05;;;;;;;5.18;4.10;;;;;;;;;;4977827;28;20457;-31
2023/06/01 03:03:31;;;;;;;3.75;3.45;;;;;;;;;;4995480;28;20050;-31
2023/06/01 03:05:58;;;;;;;4.63;4.22;;;;;;;;;;4998705;28;20039;-31
2023/06/01 03:08:24;;;;;;;4.35;3.30;;;;;;;;;;4998943;28;20030;-31
2023/06/01 03:10:51;;;;;;;4.47;3.53;;;;;;;;;;4998643;28;20401;-31
2023/06/01 03:13:17;;;;;;;5.20;4.07;;;;;;;;;;4998697;28;20037;-31
2023/06/01 03:15:43;;;;;;;4.75;3.38;;;;;;;;;;4998784;28;20045;-31
2023/06/01 03:18:09;;;;;;;4.13;3.67;;;;;;;;;;4998534;28;20033;-31
2023/06/01 03:20:35;;;;;;;4.88;3.72;;;;;;;;;;4998461;28;20030;-32
2023/06/01 03:23:01;;;;;;;3.78;3.42;;;;;;;;;;4998371;28;20026;-31
2023/06/01 03:25:28;;;;;;;3.47;3.17;;;;;;;;;;4965161;28;20026;-32
2023/06/01 03:27:54;;;;;;;3.70;3.08;;;;;;;;;;4999323;28;20393;-31
2023/06/01 03:30:21;;;;;;;5.05;3.50;;;;;;;;;;4981127;28;20018;-31
2023/06/01 03:32:47;;;;;;;5.50;3.53;;;;;;;;;;4998455;28;20088;-31
2023/06/01 03:35:13;;;;;;;4.70;3.13;;;;;;;;;;4998387;28;20046;-31
2023/06/01 03:37:40;;;;;;;3.63;3.20;;;;;;;;;;4998357;28;20062;-32
2023/06/01 03:40:10;;;;;;;5.03;3.88;;;;;;;;;;4998333;28;20458;-32
2023/06/01 03:42:40;;;;;;;4.85;3.47;;;;;;;;;;4998157;28;20034;-31
2023/06/01 03:45:07;;;;;;;3.27;2.93;;;;;;;;;;4998526;28;20101;-31
2023/06/01 03:47:33;;;;;;;4.05;3.20;;;;;;;;;;4998666;28;20367;-31
2023/06/01 03:50:01;;;;;;;4.05;3.40;;;;;;;;;;4997706;28;20026;-31
2023/06/01 03:52:27;;;;;;;3.88;3.55;;;;;;;;;;4997927;28;20026;-31
2023/06/01 03:54:55;;;;;;;3.65;2.80;;;;;;;;;;4997594;28;20457;-31
2023/06/01 03:57:21;;;;;;;5.65;4.05;;;;;;;;;;4997609;28;20117;-31
2023/06/01 03:59:47;;;;;;;4.25;3.75;;;;;;;;;;4997876;28;20033;-31
2023/06/01 04:02:13;;;;;;;4.40;3.67;;;;;;;;;;4997457;28;20029;-30
2023/06/01 04:04:48;;;;;;;5.15;3.30;;;;;;;;;;4997334;28;20057;-30
2023/06/01 04:07:18;;;;;;;3.53;3.22;;;;;;;;;;4997423;28;20037;-30
2023/06/01 04:09:44;;;;;;;4.32;3.28;;;;;;;;;;4997628;28;20031;-29
2023/06/01 04:12:11;;;;;;;3.55;3.25;;;;;;;;;;4997282;28;20031;-30
2023/06/01 04:14:37;;;;;;;4.22;2.97;;;;;;;;;;4996897;28;20449;-30
2023/06/01 04:17:03;;;;;;;5.53;4.03;;;;;;;;;;4979506;28;20027;-31
2023/06/01 04:19:29;;;;;;;4.30;3.03;;;;;;;;;;4997445;28;20097;-31
2023/06/01 04:21:57;;;;;;;7.00;3.17;;;;;;;;;;4997352;28;20034;-31
2023/06/01 04:24:23;;;;;;;3.75;2.70;;;;;;;;;;4997750;28;20038;-31
2023/06/01 04:26:50;;;;;;;4.32;3.35;;;;;;;;;;4997056;28;20073;-31
2023/06/01 04:29:19;;;;;;;4.57;3.83;;;;;;;;;;4996902;28;20049;-31
2023/06/01 04:31:45;;;;;;;3.30;2.92;;;;;;;;;;4996910;28;20338;-30
2023/06/01 04:34:12;;;;;;;6.82;3.78;;;;;;;;;;4996662;28;20077;-31
2023/06/01 04:36:39;;;;;;;6.15;3.65;;;;;;;;;;4996771;28;20038;-30
2023/06/01 04:39:08;;;;;;;3.83;3.50;;;;;;;;;;4996715;28;20030;-30
2023/06/01 04:41:35;;;;;;;8.15;5.28;;;;;;;;;;4996593;28;20018;-31
2023/06/01 04:44:05;;;;;;;3.50;3.20;;;;;;;;;;4996486;28;20081;-32
2023/06/01 04:46:32;;;;;;;4.23;3.40;;;;;;;;;;4996914;28;20038;-31
2023/06/01 04:48:59;;;;;;;3.42;3.13;;;;;;;;;;4996579;28;20060;-30
2023/06/01 04:51:26;;;;;;;4.47;3.10;;;;;;;;;;4996452;28;20038;-30
2023/06/01 04:53:53;;;;;;;7.20;3.55;;;;;;;;;;4996568;28;20045;-30
2023/06/01 04:56:20;;;;;;;6.68;3.67;;;;;;;;;;4996936;28;20022;-31
2023/06/01 04:58:47;;;;;;;4.00;3.60;;;;;;;;;;4996433;28;20391;-31
2023/06/01 05:01:15;;;;;;;4.55;3.50;;;;;;;;;;4996265;28;20161;-31
2023/06/01 05:03:42;;;;;;;6.45;3.55;;;;;;;;;;4995880;28;20430;-31
2023/06/01 05:06:08;;;;;;;6.35;3.60;;;;;;;;;;4996045;28;20093;-32
2023/06/01 05:08:35;;;;;;;7.97;3.58;;;;;;;;;;4996097;28;20097;-32
2023/06/01 05:11:02;;;;;;;7.70;3.47;;;;;;;;;;4996584;28;20048;-31
2023/06/01 05:13:28;;;;;;;8.60;3.67;;;;;;;;;;4996074;28;20045;-31
2023/06/01 05:15:55;;;;;;;3.67;2.92;;;;;;;;;;4996046;28;20026;-34
2023/06/01 05:18:21;;;;;;;6.57;3.92;;;;;;;;;;4996370;28;20450;-31
2023/06/01 05:20:47;;;;;;;3.67;3.35;;;;;;;;;;4996051;28;20101;-31
2023/06/01 05:23:13;;;;;;;5.50;3.83;;;;;;;;;;4978722;28;20037;-31
2023/06/01 05:25:39;;;;;;;4.07;3.63;;;;;;;;;;4996118;28;20033;-31
2023/06/01 05:28:06;;;;;;;6.63;2.97;;;;;;;;;;4995541;28;20030;-31
2023/06/01 05:30:32;;;;;;;4.07;3.42;;;;;;;;;;4995816;28;20118;-31
2023/06/01 05:32:58;;;;;;;6.40;3.33;;;;;;;;;;4978527;28;20048;-30
2023/06/01 05:35:25;;;;;;;6.35;3.20;;;;;;;;;;4995965;28;20034;-30
2023/06/01 05:37:51;;;;;;;7.43;2.70;;;;;;;;;;4995552;28;20042;-33
2023/06/01 05:40:17;;;;;;;4.88;3.40;;;;;;;;;;4995879;28;20026;-30
2023/06/01 05:42:43;;;;;;;6.70;3.13;;;;;;;;;;4995769;28;20029;-30
2023/06/01 05:45:10;;;;;;;5.47;3.55;;;;;;;;;;4995771;28;20031;-30
2023/06/01 05:47:36;;;;;;;4.40;2.90;;;;;;;;;;4995513;28;20087;-31
2023/06/01 05:50:02;;;;;;;3.70;3.30;;;;;;;;;;4996190;28;20113;-30
2023/06/01 05:52:28;;;;;;;4.05;3.65;;;;;;;;;;4995273;28;20031;-30
2023/06/01 05:54:55;;;;;;;9.65;3.47;;;;;;;;;;4995551;28;20470;-31
2023/06/01 05:57:21;;;;;;;4.57;3.40;;;;;;;;;;4995199;28;20026;-30
2023/06/01 05:59:47;;;;;;;3.60;3.30;;;;;;;;;;4995162;28;20026;-31
2023/06/01 06:02:14;;;;;;;5.43;3.78;;;;;;;;;;5437927;22;20014;-25
2023/06/01 06:04:40;;;;;;;10.20;3.63;;;;;;;;;;4993641;28;20112;-26
2023/06/01 06:07:06;;;;;;;5.57;2.90;;;;;;;;;;4977732;28;20511;-26
2023/06/01 06:09:34;;;;;;;4.63;3.47;;;;;;;;;;4994924;28;20037;-24
2023/06/01 06:12:01;;;;;;;4.40;3.00;;;;;;;;;;4994862;28;20026;-26
2023/06/01 06:14:27;;;;;;;6.07;3.00;;;;;;;;;;4995165;28;20353;-27
2023/06/01 06:16:53;;;;;;;5.43;3.65;;;;;;;;;;4995178;28;20392;-25
2023/06/01 06:19:19;;;;;;;4.57;2.80;;;;;;;;;;4995076;28;20441;-24
2023/06/01 06:21:45;;;;;;;6.78;3.38;;;;;;;;;;4994896;28;20030;-26
2023/06/01 06:24:12;;;;;;;5.30;4.13;;;;;;;;;;4994804;28;20046;-26
2023/06/01 06:26:38;;;;;;;4.60;4.22;;;;;;;;;;4994892;28;20474;-26
2023/06/01 06:29:04;;;;;;;5.80;3.63;;;;;;;;;;4994671;28;20464;-25
2023/06/01 06:31:30;;;;;;;4.75;3.40;;;;;;;;;;4994825;28;20041;-28
2023/06/01 06:33:56;;;;;;;5.68;3.08;;;;;;;;;;4994543;28;20041;-26
2023/06/01 06:36:22;;;;;;;4.68;3.53;;;;;;;;;;4994780;28;20018;-24
2023/06/01 06:38:48;;;;;;;7.43;3.20;;;;;;;;;;4996409;28;20481;-24
2023/06/01 06:41:15;;;;;;;3.80;3.33;;;;;;;;;;4981708;28;20109;-25
2023/06/01 06:43:41;;;;;;;3.75;3.38;;;;;;;;;;4998769;28;20041;-24
2023/06/01 06:46:07;;;;;;;5.82;3.25;;;;;;;;;;4998750;28;20030;-25
2023/06/01 06:48:33;;;;;;;3.47;2.97;;;;;;;;;;4998667;28;20033;-27
2023/06/01 06:50:59;;;;;;;4.13;2.70;;;;;;;;;;4998666;28;20029;-25
2023/06/01 06:53:26;;;;;;;4.55;3.08;;;;;;;;;;4998580;28;20389;-26
2023/06/01 06:55:52;;;;;;;3.45;3.05;;;;;;;;;;4998923;28;20054;-24
2023/06/01 06:58:18;;;;;;;7.88;3.75;;;;;;;;;;4998528;28;20067;-23
2023/06/01 07:00:44;;;;;;;9.13;4.03;;;;;;;;;;4981246;28;20022;-25
2023/06/01 07:03:10;;;;;;;5.80;3.65;;;;;;;;;;4998282;28;20350;-24
2023/06/01 07:05:36;;;;;;;4.63;3.08;;;;;;;;;;4998205;28;20520;-27
2023/06/01 07:08:02;;;;;;;8.30;3.03;;;;;;;;;;4998277;28;20019;-26
2023/06/01 07:10:29;;;;;;;5.97;3.50;;;;;;;;;;4998855;28;20419;-28
2023/06/01 07:12:55;;;;;;;6.43;3.33;;;;;;;;;;4998093;28;20105;-27
2023/06/01 07:15:22;;;;;;;5.45;3.20;;;;;;;;;;4998167;28;20034;-24
2023/06/01 07:17:48;;;;;;;4.10;3.22;;;;;;;;;;4998959;28;20399;-24
2023/06/01 07:20:14;;;;;;;5.28;3.33;;;;;;;;;;4998136;28;20098;-25
2023/06/01 07:22:40;;;;;;;7.72;3.90;;;;;;;;;;4998167;28;20352;-24
2023/06/01 07:25:07;;;;;;;4.78;2.95;;;;;;;;;;4997940;28;20122;-25
2023/06/01 07:27:35;;;;;;;7.63;4.32;;;;;;;;;;4980788;28;20034;-25
2023/06/01 07:30:02;;;;;;;6.07;3.25;;;;;;;;;;4997861;28;20018;-24
2023/06/01 07:32:28;;;;;;;5.95;3.88;;;;;;;;;;4997852;28;20056;-26
2023/06/01 07:34:57;;;;;;;4.47;2.80;;;;;;;;;;4997960;28;20153;-25
2023/06/01 07:37:26;;;;;;;8.52;3.85;;;;;;;;;;4980370;28;20027;-29
2023/06/01 07:39:53;;;;;;;9.82;4.07;;;;;;;;;;4997918;28;20321;-24
2023/06/01 07:42:20;;;;;;;6.13;3.90;;;;;;;;;;4997806;28;20361;-24
2023/06/01 07:44:46;;;;;;;3.67;3.08;;;;;;;;;;4997761;28;20019;-24
2023/06/01 07:47:13;;;;;;;6.88;4.03;;;;;;;;;;4980608;28;20065;-25
2023/06/01 07:49:39;;;;;;;3.90;3.60;;;;;;;;;;4997259;28;20029;-25
2023/06/01 07:52:05;;;;;;;3.15;2.95;;;;;;;;;;4980136;28;20026;-29
2023/06/01 07:54:32;;;;;;;6.60;3.20;;;;;;;;;;4980087;28;20357;-26
2023/06/01 07:56:58;;;;;;;6.05;3.17;;;;;;;;;;4997599;28;20029;-24
2023/06/01 07:59:24;;;;;;;5.10;3.40;;;;;;;;;;4980643;28;20352;-27
2023/06/01 08:01:51;;;;;;;6.43;3.47;;;;;;;;;;4997500;28;20037;-26
2023/06/01 08:04:21;;;;;;;4.82;3.55;;;;;;;;;;4976093;28;20038;-24
2023/06/01 08:06:47;;;;;;;7.80;3.42;;;;;;;;;;4977423;28;20357;-25
2023/06/01 08:09:14;;;;;;;7.68;3.95;;;;;;;;;;4977538;28;20090;-26
2023/06/01 08:11:40;;;;;;;8.63;3.25;;;;;;;;;;4977658;28;20027;-27
2023/06/01 08:14:09;;;;;;;5.93;3.70;;;;;;;;;;4977509;28;20038;-26
2023/06/01 08:16:35;;;;;;;5.22;4.13;;;;;;;;;;4977523;28;20026;-25
2023/06/01 08:19:03;;;;;;;5.95;3.00;;;;;;;;;;4977555;28;20034;-24
2023/06/01 08:21:29;;;;;;;6.68;4.00;;;;;;;;;;4977626;28;20030;-25
2023/06/01 08:23:55;;;;;;;15.77;3.60;;;;;;;;;;4977011;28;20027;-25
2023/06/01 08:26:23;;;;;;;4.28;3.88;;;;;;;;;;4977480;28;20030;-24
2023/06/01 08:28:52;;;;;;;9.45;3.80;;;;;;;;;;4976898;28;20406;-23
2023/06/01 08:31:22;;;;;;;10.55;3.40;;;;;;;;;;4976379;28;20050;-28
2023/06/01 08:33:50;;;;;;;8.32;3.58;;;;;;;;;;4977031;28;20022;-36
2023/06/01 08:36:16;;;;;;;10.15;3.83;;;;;;;;;;4977212;28;20362;-24
2023/06/01 08:38:43;;;;;;;7.00;3.28;;;;;;;;;;4977138;28;20030;-26
2023/06/01 08:41:18;;;;;;;6.85;4.60;;;;;;;;;;4977039;28;20053;-26
2023/06/01 08:43:47;;;;;;;7.13;3.47;;;;;;;;;;4977238;28;20449;-25
2023/06/01 08:46:14;;;;;;;5.88;3.80;;;;;;;;;;4977026;28;20034;-26
2023/06/01 08:48:41;;;;;;;4.95;3.05;;;;;;;;;;4976908;28;20086;-27
2023/06/01 08:51:07;;;;;;;9.10;3.90;;;;;;;;;;4976871;28;20054;-24
2023/06/01 08:53:34;;;;;;;5.10;3.03;;;;;;;;;;4976738;28;20107;-25
2023/06/01 08:56:00;;;;;;;5.60;3.47;;;;;;;;;;4976943;28;20458;-27
2023/06/01 08:58:27;;;;;;;5.93;3.83;;;;;;;;;;4977020;28;20361;-24
2023/06/01 09:00:54;;;;;;;9.13;3.90;;;;;;;;;;4976271;28;20029;-27
2023/06/01 09:03:20;;;;;;;11.20;4.15;;;;;;;;;;4985314;28;20039;-23
2023/06/01 09:05:46;;;;;;;4.63;3.38;;;;;;;;;;4995972;28;20022;-24
2023/06/01 09:08:13;;;;;;;9.02;3.40;;;;;;;;;;4996271;28;20099;-25
2023/06/01 09:10:40;;;;;;;5.38;3.70;;;;;;;;;;4978707;28;20488;-33
2023/06/01 09:13:06;;;;;;;5.05;3.67;;;;;;;;;;4995781;28;20030;-25
2023/06/01 09:15:32;;;;;;;7.82;3.65;;;;;;;;;;4978558;28;20030;-28
2023/06/01 09:18:10;;;;;;;8.07;3.72;;;;;;;;;;4995758;28;20022;-26
2023/06/01 09:20:38;;;;;;;14.45;3.88;;;;;;;;;;4995712;28;20030;-26
2023/06/01 09:23:04;;;;;;;6.97;3.50;;;;;;;;;;4978351;28;20019;-25
2023/06/01 09:25:33;;;;;;;11.38;3.80;;;;;;;;;;4995629;28;20034;-25
2023/06/01 09:28:01;;;;;;;7.68;3.88;;;;;;;;;;4995767;28;20097;-26
2023/06/01 09:30:41;;;;;;;7.38;4.30;;;;;;;;;;4995653;28;20113;-24
2023/06/01 09:33:15;;;;;;;14.82;4.43;;;;;;;;;;4995894;28;20053;-25
2023/06/01 09:35:42;;;;;;;6.40;5.03;;;;;;;;;;4995541;28;20464;-27
2023/06/01 09:38:09;;;;;;;6.78;4.40;;;;;;;;;;4995423;28;20434;-28
2023/06/01 09:40:35;;;;;;;10.13;3.33;;;;;;;;;;4978040;28;20053;-28
2023/06/01 09:43:02;;;;;;;8.00;3.92;;;;;;;;;;4995393;28;20029;-26
2023/06/01 09:45:29;;;;;;;6.85;3.35;;;;;;;;;;4995496;28;20026;-25
2023/06/01 09:48:15;;;;;;;5.43;3.63;;;;;;;;;;4978074;28;20026;-26
2023/06/01 09:50:42;;;;;;;4.28;3.63;;;;;;;;;;4995829;28;20085;-26
2023/06/01 09:53:08;;;;;;;5.82;3.83;;;;;;;;;;4995487;28;20334;-26
2023/06/01 09:55:35;;;;;;;6.80;4.15;;;;;;;;;;4977914;28;20476;-26
2023/06/01 09:58:20;;;;;;;12.32;3.33;;;;;;;;;;4995231;28;20026;-25
2023/06/01 10:00:50;;;;;;;7.72;3.70;;;;;;;;;;4995395;28;20338;-25
2023/06/01 10:03:17;;;;;;;11.40;4.23;;;;;;;;;;4995101;28;20050;-27
2023/06/01 10:05:44;;;;;;;6.10;3.55;;;;;;;;;;4994904;28;20026;-26
2023/06/01 10:08:12;;;;;;;7.57;3.63;;;;;;;;;;4977949;28;20034;-26
2023/06/01 10:10:39;;;;;;;6.75;4.55;;;;;;;;;;4977697;28;20026;-27
2023/06/01 10:13:06;;;;;;;6.28;3.75;;;;;;;;;;4994358;28;20108;-27
2023/06/01 10:15:33;;;;;;;6.03;3.88;;;;;;;;;;4995732;28;20030;-25
2023/06/01 10:18:00;;;;;;;6.25;3.95;;;;;;;;;;4995095;28;20101;-26
2023/06/01 10:20:26;;;;;;;12.43;4.40;;;;;;;;;;4995044;28;20030;-27
2023/06/01 10:22:53;;;;;;;10.13;3.75;;;;;;;;;;4995318;28;20022;-24
2023/06/01 10:25:23;;;;;;;9.98;4.80;;;;;;;;;;4995115;28;20076;-25
2023/06/01 10:27:56;;;;;;;5.10;4.10;;;;;;;;;;4995577;28;20026;-26
2023/06/01 10:30:22;;;;;;;6.35;3.75;;;;;;;;;;4995043;28;20088;-28
2023/06/01 10:32:48;;;;;;;10.70;3.88;;;;;;;;;;4994856;28;20030;-26
2023/06/01 10:35:26;;;;;;;5.85;4.07;;;;;;;;;;4994771;28;20030;-26
2023/06/01 10:38:12;;;;;;;8.52;3.75;;;;;;;;;;4977879;28;20177;-25
2023/06/01 10:40:45;;;;;;;5.93;3.53;;;;;;;;;;4995044;28;20165;-24
2023/06/01 10:43:30;;;;;;;10.15;5.15;;;;;;;;;;4994887;28;20026;-25
2023/06/01 10:45:56;;;;;;;12.88;4.10;;;;;;;;;;4994885;28;20421;-25
2023/06/01 10:48:42;;;;;;;7.72;3.50;;;;;;;;;;4977839;28;20034;-25
2023/06/01 10:51:18;;;;;;;9.48;4.00;;;;;;;;;;4994753;28;20341;-26
2023/06/01 10:53:44;;;;;;;13.82;6.13;;;;;;;;;;4994608;28;20031;-25
2023/06/01 10:56:24;;;;;;;8.00;4.15;;;;;;;;;;4994794;28;20030;-25
2023/06/01 10:59:08;;;;;;;7.15;4.05;;;;;;;;;;4977578;28;20450;-25
2023/06/01 11:01:40;;;;;;;9.20;4.18;;;;;;;;;;4994769;28;20026;-23
2023/06/01 11:04:06;;;;;;;13.98;5.63;;;;;;;;;;4994454;28;20042;-24
2023/06/01 11:06:37;;;;;;;13.80;4.13;;;;;;;;;;4994666;28;20030;-22
2023/06/01 11:09:09;;;;;;;4.90;4.15;;;;;;;;;;4994590;28;20030;-24
2023/06/01 11:11:58;;;;;;;7.28;3.45;;;;;;;;;;4994739;28;20109;-26
2023/06/01 11:14:25;;;;;;;7.88;4.47;;;;;;;;;;4966175;28;20038;-25
2023/06/01 11:16:54;;;;;;;8.95;3.78;;;;;;;;;;4994904;28;20018;-26
2023/06/01 11:19:24;;;;;;;7.75;4.43;;;;;;;;;;4994670;28;20101;-27
2023/06/01 11:21:54;;;;;;;10.35;4.82;;;;;;;;;;4978202;28;20343;-24
2023/06/01 11:24:21;;;;;;;7.18;4.05;;;;;;;;;;4977910;28;20114;-25
2023/06/01 11:26:48;;;;;;;5.47;3.85;;;;;;;;;;4998291;28;20343;-26
2023/06/01 11:29:16;;;;;;;6.25;4.80;;;;;;;;;;4998270;28;20106;-26
2023/06/01 11:31:43;;;;;;;12.55;4.57;;;;;;;;;;4998196;28;20030;-25
2023/06/01 11:34:10;;;;;;;11.65;3.95;;;;;;;;;;4980694;28;20031;-24
2023/06/01 11:36:40;;;;;;;10.35;4.20;;;;;;;;;;4998071;28;20093;-26
2023/06/01 11:39:16;;;;;;;9.47;3.30;;;;;;;;;;4980834;28;20057;-26
2023/06/01 11:41:44;;;;;;;14.77;4.38;;;;;;;;;;4997906;28;20716;-25
2023/06/01 11:44:10;;;;;;;5.28;3.55;;;;;;;;;;4997831;28;20030;-25
2023/06/01 11:46:36;;;;;;;11.48;4.00;;;;;;;;;;4998119;28;20030;-27
2023/06/01 11:49:08;;;;;;;15.55;4.55;;;;;;;;;;4980588;28;20035;-27
2023/06/01 11:51:42;;;;;;;6.38;4.53;;;;;;;;;;4997757;28;20106;-26
2023/06/01 11:54:08;;;;;;;13.25;4.07;;;;;;;;;;4997769;28;20353;-26
2023/06/01 11:56:42;;;;;;;8.65;4.35;;;;;;;;;;4997612;28;20085;-24
2023/06/01 11:59:09;;;;;;;5.85;3.67;;;;;;;;;;4997845;28;20073;-27
2023/06/01 12:01:39;;;;;;;15.07;5.18;;;;;;;;;;4997899;28;20400;-25
2023/06/01 12:04:07;;;;;;;10.77;4.40;;;;;;;;;;4997447;28;20392;-25
2023/06/01 12:06:35;;;;;;;6.03;4.20;;;;;;;;;;4997344;28;20030;-26
2023/06/01 12:09:01;;;;;;;12.77;3.97;;;;;;;;;;4997659;28;20111;-25
2023/06/01 12:11:28;;;;;;;5.50;4.60;;;;;;;;;;4997354;28;20038;-28
2023/06/01 12:13:55;;;;;;;6.35;4.20;;;;;;;;;;4980000;28;20034;-23
2023/06/01 12:16:22;;;;;;;8.93;4.07;;;;;;;;;;4997294;28;20444;-26
2023/06/01 12:18:48;;;;;;;11.52;4.40;;;;;;;;;;4997353;28;20026;-26
2023/06/01 12:21:16;;;;;;;12.73;4.40;;;;;;;;;;4997103;28;20211;-25
2023/06/01 12:23:43;;;;;;;10.25;4.07;;;;;;;;;;4997081;28;20073;-27
2023/06/01 12:26:09;;;;;;;14.23;5.10;;;;;;;;;;4997372;28;20037;-25
2023/06/01 12:28:53;;;;;;;12.60;4.28;;;;;;;;;;4979883;28;20034;-25
2023/06/01 12:31:19;;;;;;;13.57;4.63;;;;;;;;;;4997350;28;20030;-25
2023/06/01 12:33:47;;;;;;;19.08;5.00;;;;;;;;;;4997030;28;20030;-25
2023/06/01 12:36:34;;;;;;;8.52;5.90;;;;;;;;;;4996133;28;20022;-26
2023/06/01 12:39:00;;;;;;;7.22;4.38;;;;;;;;;;4997116;28;20019;-27
2023/06/01 12:41:27;;;;;;;9.73;4.40;;;;;;;;;;4979587;28;20449;-28
2023/06/01 12:43:53;;;;;;;10.07;4.15;;;;;;;;;;4979842;28;20030;-27
2023/06/01 12:46:21;;;;;;;11.23;3.85;;;;;;;;;;4997009;28;20026;-26
2023/06/01 12:48:47;;;;;;;12.07;3.95;;;;;;;;;;4996831;28;20034;-24
2023/06/01 12:51:14;;;;;;;19.27;5.13;;;;;;;;;;4979423;28;20027;-27
2023/06/01 12:53:42;;;;;;;17.70;4.30;;;;;;;;;;4979130;28;20037;-26
2023/06/01 12:56:08;;;;;;;10.68;3.95;;;;;;;;;;4996358;28;20053;-24
2023/06/01 12:58:34;;;;;;;12.68;5.00;;;;;;;;;;4996334;28;20370;-26
2023/06/01 13:01:01;;;;;;;14.45;4.97;;;;;;;;;;4996224;28;20353;-26
2023/06/01 13:03:27;;;;;;;8.55;4.40;;;;;;;;;;4996110;28;20035;-27
2023/06/01 13:05:54;;;;;;;10.98;3.88;;;;;;;;;;4996227;28;20043;-26
2023/06/01 13:08:20;;;;;;;5.57;3.92;;;;;;;;;;4996441;28;20030;-27
2023/06/01 13:10:47;;;;;;;9.50;4.95;;;;;;;;;;4978953;28;20018;-26
2023/06/01 13:13:13;;;;;;;13.23;5.30;;;;;;;;;;4995904;28;20026;-26
2023/06/01 13:15:40;;;;;;;8.93;4.10;;;;;;;;;;4996153;28;20061;-24
2023/06/01 13:18:06;;;;;;;9.63;3.92;;;;;;;;;;4996212;28;20030;-25
2023/06/01 13:20:32;;;;;;;7.60;4.40;;;;;;;;;;4996387;28;20430;-23
2023/06/01 13:22:59;;;;;;;9.20;4.53;;;;;;;;;;4995927;28;20100;-24
2023/06/01 13:25:25;;;;;;;6.82;4.50;;;;;;;;;;4995857;28;20034;-25
2023/06/01 13:27:52;;;;;;;12.15;4.63;;;;;;;;;;4995767;28;20093;-25
2023/06/01 13:30:18;;;;;;;8.75;4.13;;;;;;;;;;4995708;28;20038;-27
2023/06/01 13:32:45;;;;;;;8.40;4.22;;;;;;;;;;4995658;28;20026;-25
2023/06/01 13:35:11;;;;;;;16.67;5.72;;;;;;;;;;4962494;28;20030;-26
2023/06/01 13:37:38;;;;;;;5.13;4.10;;;;;;;;;;4978416;28;20030;-24
2023/06/01 13:40:05;;;;;;;5.38;4.05;;;;;;;;;;4995860;28;20454;-26
2023/06/01 13:42:32;;;;;;;5.57;4.03;;;;;;;;;;4995644;28;20037;-28
2023/06/01 13:44:58;;;;;;;9.35;4.53;;;;;;;;;;4995561;28;20109;-24
2023/06/01 13:47:25;;;;;;;5.80;4.07;;;;;;;;;;4995433;28;20034;-27
2023/06/01 13:49:52;;;;;;;4.07;3.67;;;;;;;;;;4995431;28;20049;-23
2023/06/01 13:52:18;;;;;;;12.70;4.13;;;;;;;;;;4978379;28;20118;-26
2023/06/01 13:54:44;;;;;;;6.25;4.68;;;;;;;;;;4978153;28;20057;-34
2023/06/01 13:57:11;;;;;;;7.32;4.38;;;;;;;;;;4978255;28;20023;-25
2023/06/01 13:59:37;;;;;;;12.85;4.45;;;;;;;;;;4978194;28;20022;-26
2023/06/01 14:02:04;;;;;;;7.22;3.97;;;;;;;;;;4995285;28;20033;-25
2023/06/01 14:04:31;;;;;;;11.30;4.82;;;;;;;;;;4994976;28;20481;-23
2023/06/01 14:06:57;;;;;;;7.55;4.20;;;;;;;;;;4995119;28;20034;-24
2023/06/01 14:09:24;;;;;;;8.90;4.97;;;;;;;;;;4995173;28;20046;-26
2023/06/01 14:11:50;;;;;;;9.45;4.70;;;;;;;;;;4995236;28;20054;-26
2023/06/01 14:14:16;;;;;;;11.88;4.15;;;;;;;;;;4994687;28;20109;-23
2023/06/01 14:16:43;;;;;;;14.55;4.72;;;;;;;;;;4977666;28;20050;-24
2023/06/01 14:19:09;;;;;;;14.35;4.85;;;;;;;;;;4995025;28;20457;-26
2023/06/01 14:21:38;;;;;;;7.55;4.30;;;;;;;;;;4994992;28;20053;-24
2023/06/01 14:24:04;;;;;;;11.38;4.45;;;;;;;;;;4994893;28;20426;-24
2023/06/01 14:26:30;;;;;;;7.78;4.05;;;;;;;;;;4977831;28;20030;-23
2023/06/01 14:28:57;;;;;;;8.27;4.95;;;;;;;;;;4995059;28;20101;-25
2023/06/01 14:31:23;;;;;;;6.97;3.95;;;;;;;;;;4977585;28;20166;-26
2023/06/01 14:33:49;;;;;;;16.52;4.97;;;;;;;;;;4977406;28;20335;-26
2023/06/01 14:36:16;;;;;;;9.68;4.75;;;;;;;;;;4961529;28;20458;-25
2023/06/01 14:38:42;;;;;;;17.20;4.90;;;;;;;;;;4994689;28;20026;-27
2023/06/01 14:41:08;;;;;;;10.52;4.20;;;;;;;;;;4977437;28;20125;-25
2023/06/01 14:43:35;;;;;;;5.18;4.10;;;;;;;;;;4994655;28;20049;-26